sim
Sign-in with your pilot id or email,
or register
Callsign
Passwort

Schedule Details

Flight Number: OEO8381
Departure: Aberdeen International Airport (EGPD) at 11:50
Arrival: Munich Airport (EDDM) at 14:10

Weather Information
Getting current METAR information for EGPD 240420Z AUTO 30010KT 9999 FEW026 SCT038 07/04 Q0993 NOSIG
Getting current METAR information for EDDM 240420Z VRB02KT CAVOK 09/09 Q1009 NOSIG

Schedule Frequency

Route Map